Time;durP1;ratioP1;P1;durP2;ratioP2;P2;SDS_P1;SDS_P2;PMS_P1;PMS_P2;Temp;Humidity;BMP_temperature;BMP_pressure;BME280_temperature;BME280_humidity;BME280_pressure;Samples;Min_cycle;Max_cycle;Signal;HPM_P1;HPM_P2
2021/08/17 00:00:58;;;;;;;10.43;5.10;;;;;;;14.49;68.04;101677.91;5051574;28;20036;-55
2021/08/17 00:03:27;;;;;;;11.20;4.88;;;;;;;14.49;67.96;101671.59;5052104;28;20045;-55
2021/08/17 00:06:01;;;;;;;15.25;5.53;;;;;;;14.47;68.16;101680.09;5052328;28;20110;-58
2021/08/17 00:08:29;;;;;;;11.52;5.70;;;;;;;14.49;68.41;101677.91;5052226;28;20447;-57
2021/08/17 00:10:57;;;;;;;16.58;5.32;;;;;;;14.51;68.54;101683.13;5051130;28;20052;-59
2021/08/17 00:13:25;;;;;;;10.82;4.80;;;;;;;14.49;68.54;101675.16;5052508;28;20044;-57
2021/08/17 00:15:53;;;;;;;12.25;5.60;;;;;;;14.50;68.34;101684.22;5051305;28;20059;-58
2021/08/17 00:18:20;;;;;;;13.00;5.28;;;;;;;14.45;68.65;101676.78;5052109;28;20107;-58
2021/08/17 00:20:48;;;;;;;13.30;5.72;;;;;;;14.48;68.48;101676.28;5052170;28;20037;-58
2021/08/17 00:23:15;;;;;;;10.27;4.60;;;;;;;14.44;68.64;101672.41;5051887;28;20045;-59
2021/08/17 00:25:44;;;;;;;15.10;5.40;;;;;;;14.44;68.71;101666.94;5050415;28;20053;-57
2021/08/17 00:28:12;;;;;;;12.07;4.82;;;;;;;14.44;68.66;101669.69;5051990;28;20048;-57
2021/08/17 00:30:39;;;;;;;10.20;4.55;;;;;;;14.41;68.92;101670.22;5051529;28;20522;-58
2021/08/17 00:33:07;;;;;;;12.73;5.30;;;;;;;14.43;69.13;101670.78;5051930;28;20040;-59
2021/08/17 00:35:36;;;;;;;12.50;5.22;;;;;;;14.39;69.26;101666.13;5051702;28;20056;-56
2021/08/17 00:38:04;;;;;;;11.65;5.28;;;;;;;14.35;69.71;101668.56;5051550;28;20522;-58
2021/08/17 00:40:33;;;;;;;10.50;4.90;;;;;;;14.36;69.62;101667.50;5052129;28;20053;-58
2021/08/17 00:43:01;;;;;;;14.57;5.78;;;;;;;14.31;69.98;101664.75;5051234;28;20091;-57
2021/08/17 00:45:30;;;;;;;14.43;5.30;;;;;;;14.34;69.91;101658.72;5025658;28;20045;-57
2021/08/17 00:47:58;;;;;;;12.65;5.93;;;;;;;14.31;70.13;101653.78;5031857;28;20428;-58
2021/08/17 00:50:27;;;;;;;12.73;6.22;;;;;;;14.29;70.25;101647.75;5031764;28;20045;-57
2021/08/17 00:52:55;;;;;;;10.70;5.55;;;;;;;14.31;70.54;101647.44;5031903;28;20060;-57
2021/08/17 00:55:24;;;;;;;12.10;5.90;;;;;;;14.30;70.81;101649.38;5032065;28;20046;-57
2021/08/17 00:57:53;;;;;;;10.65;5.82;;;;;;;14.26;70.96;101643.63;5031540;28;20053;-54
2021/08/17 01:00:22;;;;;;;12.18;5.88;;;;;;;14.26;71.33;101642.78;5031481;28;20511;-56
2021/08/17 01:02:50;;;;;;;13.82;6.82;;;;;;;14.26;71.64;101642.78;5035101;28;20087;-55
2021/08/17 01:05:21;;;;;;;14.23;6.90;;;;;;;14.26;71.77;101643.63;5035376;28;20107;-52
2021/08/17 01:07:49;;;;;;;15.30;7.53;;;;;;;14.23;71.87;101648.81;5035743;28;20037;-57
2021/08/17 01:10:17;;;;;;;13.10;7.32;;;;;;;14.24;71.96;101645.81;5034279;28;20046;-55
2021/08/17 01:12:44;;;;;;;14.20;8.45;;;;;;;14.21;72.05;101643.59;5035321;28;20034;-56
2021/08/17 01:15:14;;;;;;;16.50;8.50;;;;;;;14.20;72.34;101641.97;5034514;28;20058;-52
2021/08/17 01:17:43;;;;;;;14.88;8.05;;;;;;;14.24;72.45;101651.31;5034590;28;20041;-52
2021/08/17 01:20:17;;;;;;;14.65;8.70;;;;;;;14.21;72.46;101654.56;5034507;28;20384;-55
2021/08/17 01:22:47;;;;;;;17.88;10.02;;;;;;;14.19;72.72;101650.44;5035488;28;20041;-55
2021/08/17 01:25:15;;;;;;;17.98;8.88;;;;;;;14.17;72.83;101647.19;5034997;28;20404;-55
2021/08/17 01:27:44;;;;;;;15.32;9.18;;;;;;;14.18;72.91;101659.78;5034691;28;20041;-55
2021/08/17 01:30:14;;;;;;;16.38;9.90;;;;;;;14.16;73.19;101659.22;5035185;28;20484;-55
2021/08/17 01:32:47;;;;;;;20.65;10.50;;;;;;;14.13;73.33;101657.84;5033485;28;20048;-50
2021/08/17 01:35:15;;;;;;;16.98;9.30;;;;;;;14.12;73.20;101655.38;5034926;28;20487;-49
2021/08/17 01:37:43;;;;;;;20.73;10.57;;;;;;;14.14;73.59;101658.66;5035045;28;20033;-56
2021/08/17 01:40:12;;;;;;;23.15;12.30;;;;;;;14.16;73.28;101665.53;5035083;28;20045;-56
2021/08/17 01:42:43;;;;;;;18.63;10.20;;;;;;;14.15;73.55;101668.56;5034422;28;20041;-58
2021/08/17 01:45:13;;;;;;;19.60;10.80;;;;;;;14.14;73.86;101667.75;5034883;28;20045;-57
2021/08/17 01:47:41;;;;;;;22.30;11.85;;;;;;;14.12;73.91;101660.84;5034824;28;20112;-57
2021/08/17 01:50:10;;;;;;;23.85;12.52;;;;;;;14.13;73.93;101670.75;5035053;28;20048;-55
2021/08/17 01:52:37;;;;;;;22.08;12.73;;;;;;;14.15;73.93;101665.81;5034455;28;20037;-53
2021/08/17 01:55:07;;;;;;;21.75;12.35;;;;;;;14.18;73.78;101666.09;5034501;28;20041;-58
2021/08/17 01:57:41;;;;;;;21.00;13.35;;;;;;;14.16;73.79;101671.00;5034305;28;20053;-57
2021/08/17 02:00:10;;;;;;;19.73;13.02;;;;;;;14.15;74.03;101663.88;5034595;28;20095;-58
2021/08/17 02:02:38;;;;;;;25.40;15.20;;;;;;;14.12;74.06;101671.81;5034231;28;20056;-58
2021/08/17 02:05:07;;;;;;;23.23;13.75;;;;;;;14.08;74.49;101666.06;5034452;28;20046;-53
2021/08/17 02:07:34;;;;;;;25.38;15.30;;;;;;;14.06;74.72;101671.81;5034491;28;20054;-54
2021/08/17 02:10:03;;;;;;;28.27;14.50;;;;;;;14.07;74.64;101675.41;5020235;28;20037;-56
2021/08/17 02:12:30;;;;;;;23.70;14.82;;;;;;;14.10;74.71;101676.78;5033995;28;20078;-58
2021/08/17 02:14:58;;;;;;;27.23;16.10;;;;;;;14.06;74.85;101674.56;5033669;28;20057;-55
2021/08/17 02:17:26;;;;;;;24.33;16.38;;;;;;;14.05;74.92;101672.09;5033918;28;20041;-56
2021/08/17 02:19:53;;;;;;;27.95;16.25;;;;;;;14.00;75.21;101681.13;5034174;28;20041;-56
2021/08/17 02:22:21;;;;;;;28.40;17.30;;;;;;;13.96;75.44;101677.28;5034144;28;20045;-53
2021/08/17 02:24:49;;;;;;;24.75;15.00;;;;;;;13.92;75.60;101676.16;5033850;28;20041;-55
2021/08/17 02:27:16;;;;;;;26.50;16.17;;;;;;;13.91;75.78;101673.69;5032222;28;20052;-57
2021/08/17 02:29:44;;;;;;;25.98;16.38;;;;;;;13.93;75.96;101669.59;5033889;28;20403;-54
2021/08/17 02:32:12;;;;;;;24.98;16.23;;;;;;;13.91;75.86;101666.31;5033922;28;20571;-55
2021/08/17 02:34:39;;;;;;;30.98;18.10;;;;;;;13.93;76.07;101661.38;5034062;28;20132;-57
2021/08/17 02:37:07;;;;;;;29.33;17.40;;;;;;;13.93;76.27;101669.59;5033744;28;20116;-57
2021/08/17 02:39:34;;;;;;;29.50;17.63;;;;;;;13.93;76.12;101674.25;5033720;28;20049;-57
2021/08/17 02:42:02;;;;;;;28.02;17.73;;;;;;;13.91;76.21;101671.78;5033327;28;20029;-56
2021/08/17 02:44:31;;;;;;;29.23;17.70;;;;;;;13.91;76.34;101666.31;5033565;28;20124;-59
2021/08/17 02:46:58;;;;;;;29.52;17.50;;;;;;;13.92;76.29;101667.13;5033439;28;20045;-57
2021/08/17 02:49:26;;;;;;;31.48;18.45;;;;;;;13.93;76.27;101668.78;5033753;28;20432;-56
2021/08/17 02:51:53;;;;;;;28.55;17.88;;;;;;;13.88;76.60;101669.59;5033369;28;20191;-58
2021/08/17 02:54:21;;;;;;;33.53;18.20;;;;;;;13.87;76.83;101670.66;5033125;28;20431;-56
2021/08/17 02:56:48;;;;;;;32.38;17.95;;;;;;;13.88;76.84;101666.84;5033136;28;20048;-54
2021/08/17 02:59:16;;;;;;;30.00;18.27;;;;;;;13.89;76.80;101668.47;5033256;28;20049;-55
2021/08/17 03:01:44;;;;;;;28.45;18.02;;;;;;;13.93;76.72;101664.13;5033445;28;20034;-56
2021/08/17 03:04:12;;;;;;;28.65;17.42;;;;;;;13.92;76.91;101662.47;5033286;28;20043;-53
2021/08/17 03:06:39;;;;;;;30.42;17.77;;;;;;;13.97;76.87;101670.69;5033316;28;20054;-59
2021/08/17 03:09:07;;;;;;;28.38;16.17;;;;;;;14.04;76.48;101665.78;5032905;28;20103;-58
2021/08/17 03:11:34;;;;;;;30.92;18.85;;;;;;;14.03;76.72;101664.13;5032830;28;20052;-55
2021/08/17 03:14:03;;;;;;;28.63;17.75;;;;;;;14.01;77.01;101665.50;5032998;28;20129;-56
2021/08/17 03:16:31;;;;;;;29.60;16.75;;;;;;;14.02;77.14;101658.91;5032986;28;20044;-57
2021/08/17 03:18:59;;;;;;;26.48;16.85;;;;;;;14.05;77.39;101664.69;5031462;28;20541;-52
2021/08/17 03:21:26;;;;;;;34.75;19.23;;;;;;;14.06;77.33;101669.06;5031853;28;20041;-57
2021/08/17 03:23:54;;;;;;;31.33;18.58;;;;;;;14.05;77.34;101672.91;5030668;28;20050;-56
2021/08/17 03:26:22;;;;;;;27.58;16.55;;;;;;;14.05;77.66;101670.19;5032931;28;20041;-56
2021/08/17 03:28:49;;;;;;;30.17;19.48;;;;;;;14.05;77.72;101661.97;5032809;28;20038;-58
2021/08/17 03:31:17;;;;;;;30.52;18.67;;;;;;;14.06;77.99;101665.50;5032901;28;20053;-58
2021/08/17 03:33:44;;;;;;;25.88;15.60;;;;;;;14.10;78.01;101657.59;5032490;28;20052;-58
2021/08/17 03:36:12;;;;;;;30.20;18.27;;;;;;;14.13;78.30;101651.56;5032795;28;20045;-54
2021/08/17 03:38:40;;;;;;;34.00;19.13;;;;;;;14.16;78.04;101657.31;5032440;28;20045;-58
2021/08/17 03:41:07;;;;;;;37.80;20.77;;;;;;;14.17;77.96;101660.88;5032575;28;20033;-57
2021/08/17 03:43:36;;;;;;;34.35;19.65;;;;;;;14.17;78.04;101658.97;5032489;28;20104;-56
2021/08/17 03:46:07;;;;;;;32.53;18.73;;;;;;;14.22;77.76;101655.41;5032715;28;20052;-55
2021/08/17 03:48:34;;;;;;;34.88;20.63;;;;;;;14.20;78.20;101661.16;5032130;28;20076;-56
2021/08/17 03:51:02;;;;;;;27.55;16.77;;;;;;;14.22;78.19;101666.38;5032486;28;20037;-55
2021/08/17 03:53:29;;;;;;;35.08;21.15;;;;;;;14.21;78.31;101657.31;5031882;28;20043;-56
2021/08/17 03:55:57;;;;;;;29.50;17.73;;;;;;;14.20;78.37;101646.63;5032396;28;20034;-57
2021/08/17 03:58:26;;;;;;;25.13;14.95;;;;;;;14.20;78.45;101652.13;5032244;28;20045;-56
2021/08/17 04:00:53;;;;;;;33.65;20.67;;;;;;;14.19;78.55;101651.31;5032139;28;20045;-53
2021/08/17 04:03:21;;;;;;;35.75;19.75;;;;;;;14.19;78.77;101647.72;5032355;28;20056;-54
2021/08/17 04:05:49;;;;;;;30.33;18.30;;;;;;;14.20;78.71;101655.66;5031975;28;20052;-56
2021/08/17 04:08:16;;;;;;;22.67;13.60;;;;;;;14.27;78.29;101655.41;5031582;28;20496;-54
2021/08/17 04:10:46;;;;;;;33.65;20.42;;;;;;;14.26;78.38;101661.97;5032452;28;20048;-55
2021/08/17 04:13:14;;;;;;;36.05;20.42;;;;;;;14.24;78.83;101659.53;5031986;28;20044;-55
2021/08/17 04:15:41;;;;;;;34.13;20.65;;;;;;;14.25;79.23;101657.59;5032253;28;20049;-56
2021/08/17 04:18:09;;;;;;;28.83;18.02;;;;;;;14.28;78.69;101665.28;5032027;28;20079;-57
2021/08/17 04:20:37;;;;;;;31.42;17.92;;;;;;;14.28;78.46;101666.09;5031968;28;20506;-51
2021/08/17 04:23:05;;;;;;;37.35;20.85;;;;;;;14.28;78.59;101666.09;5031602;28;20033;-53
2021/08/17 04:25:32;;;;;;;28.40;17.90;;;;;;;14.27;78.71;101666.38;5031048;28;20037;-57
2021/08/17 04:28:04;;;;;;;34.20;19.27;;;;;;;14.28;78.85;101670.75;5032194;28;20119;-56
2021/08/17 04:30:32;;;;;;;26.92;17.98;;;;;;;14.26;78.76;101671.03;5032277;28;20038;-56
2021/08/17 04:32:59;;;;;;;32.60;19.20;;;;;;;14.28;78.91;101671.56;5032052;28;20041;-57
2021/08/17 04:35:27;;;;;;;34.03;20.33;;;;;;;14.29;78.90;101664.19;5031653;28;20080;-59
2021/08/17 04:37:57;;;;;;;33.20;19.23;;;;;;;14.32;78.80;101660.91;5035682;28;20053;-55
2021/08/17 04:40:25;;;;;;;30.73;17.83;;;;;;;14.36;78.72;101672.97;5036078;28;20040;-59
2021/08/17 04:42:52;;;;;;;32.75;18.92;;;;;;;14.34;79.02;101680.66;5036036;28;20463;-58
2021/08/17 04:45:20;;;;;;;37.33;21.95;;;;;;;14.33;79.09;101676.25;5035517;28;20045;-58
2021/08/17 04:47:50;;;;;;;30.30;18.52;;;;;;;14.33;79.14;101673.50;5035658;28;20052;-59
2021/08/17 04:50:19;;;;;;;31.83;19.27;;;;;;;14.33;78.99;101670.75;5035165;28;20053;-57
2021/08/17 04:52:47;;;;;;;28.63;16.30;;;;;;;14.36;79.13;101662.00;5035509;28;20049;-58
2021/08/17 04:55:16;;;;;;;36.33;20.73;;;;;;;14.37;79.18;101662.81;5035881;28;20059;-60
2021/08/17 04:58:01;;;;;;;34.33;18.90;;;;;;;14.37;79.03;101666.38;5034393;28;20052;-58
2021/08/17 05:00:29;;;;;;;33.88;20.85;;;;;;;14.37;79.27;101668.31;5035550;28;20045;-56
2021/08/17 05:02:57;;;;;;;29.63;16.80;;;;;;;14.33;79.13;101673.50;5035404;28;20047;-57
2021/08/17 05:05:26;;;;;;;33.80;18.63;;;;;;;14.36;79.08;101667.50;5035131;28;20057;-57
2021/08/17 05:07:53;;;;;;;33.75;20.27;;;;;;;14.40;79.16;101673.22;5035501;28;20373;-58
2021/08/17 05:10:23;;;;;;;32.38;18.23;;;;;;;14.43;79.05;101669.94;5035636;28;20076;-58
2021/08/17 05:12:50;;;;;;;31.65;19.33;;;;;;;14.43;79.11;101681.75;5033969;28;20069;-58
2021/08/17 05:15:18;;;;;;;38.53;22.05;;;;;;;14.38;79.45;101680.91;5034960;28;20064;-58
2021/08/17 05:17:45;;;;;;;40.70;21.63;;;;;;;14.37;79.31;101685.56;5035291;28;20438;-56
2021/08/17 05:20:13;;;;;;;31.90;20.02;;;;;;;14.38;79.15;101686.38;5034820;28;20046;-56
2021/08/17 05:22:45;;;;;;;36.70;22.52;;;;;;;14.37;79.20;101702.03;5035391;28;20087;-55
2021/08/17 05:25:13;;;;;;;29.77;18.17;;;;;;;14.36;79.39;101699.53;5035222;28;20381;-53
2021/08/17 05:27:41;;;;;;;32.90;19.60;;;;;;;14.33;79.23;101706.41;5035303;28;20048;-57
2021/08/17 05:30:09;;;;;;;32.67;18.45;;;;;;;14.38;79.42;101706.44;5034975;28;20388;-58
2021/08/17 05:32:37;;;;;;;36.80;20.70;;;;;;;14.38;79.48;101700.09;5034769;28;20518;-57
2021/08/17 05:35:05;;;;;;;34.95;19.50;;;;;;;14.40;79.54;101703.41;5034394;28;20056;-58
2021/08/17 05:37:33;;;;;;;34.53;20.50;;;;;;;14.40;79.80;101700.66;5035001;28;20054;-56
2021/08/17 05:40:00;;;;;;;40.88;23.23;;;;;;;14.38;79.77;101694.63;5034912;28;20546;-58
2021/08/17 05:42:28;;;;;;;38.67;20.63;;;;;;;14.37;79.79;101695.72;5034627;28;20400;-57
2021/08/17 05:44:56;;;;;;;36.65;21.63;;;;;;;14.35;79.93;101693.25;5034724;28;20077;-56
2021/08/17 05:47:23;;;;;;;35.78;20.42;;;;;;;14.34;79.89;101690.78;5033761;28;20050;-56
2021/08/17 05:49:51;;;;;;;37.15;19.83;;;;;;;14.38;79.95;101692.72;5034977;28;20514;-57
2021/08/17 05:52:18;;;;;;;31.83;17.52;;;;;;;14.41;79.70;101688.63;5034086;28;20056;-56
2021/08/17 05:54:46;;;;;;;32.78;19.45;;;;;;;14.36;80.16;101694.91;5034672;28;20048;-55
2021/08/17 05:57:13;;;;;;;32.10;18.02;;;;;;;14.35;80.34;101693.25;5034440;28;20033;-55
2021/08/17 05:59:41;;;;;;;32.72;18.98;;;;;;;14.32;80.43;101688.31;5034419;28;20447;-57
2021/08/17 06:02:09;;;;;;;32.55;18.15;;;;;;;14.33;80.32;101687.22;5034421;28;20041;-56
2021/08/17 06:04:36;;;;;;;33.53;19.25;;;;;;;14.36;80.62;101683.94;4332268;28;10000003;-56
2021/08/17 06:07:04;;;;;;;35.55;18.88;;;;;;;14.35;80.73;101684.19;5032310;28;20056;-56
2021/08/17 06:09:32;;;;;;;35.67;20.45;;;;;;;14.34;80.88;101683.38;5031964;28;20254;-57
2021/08/17 06:12:01;;;;;;;33.08;18.65;;;;;;;14.37;80.60;101679.28;5031983;28;20045;-55
2021/08/17 06:14:28;;;;;;;38.47;19.48;;;;;;;14.37;80.87;101677.34;5031821;28;20507;-54
2021/08/17 06:16:56;;;;;;;29.65;16.73;;;;;;;14.41;80.66;101672.97;5031569;28;20053;-56
2021/08/17 06:19:23;;;;;;;34.88;20.08;;;;;;;14.43;81.01;101679.00;5028423;28;20046;-54
2021/08/17 06:21:51;;;;;;;32.05;18.25;;;;;;;14.43;80.88;101673.53;5024460;28;20049;-57
2021/08/17 06:24:19;;;;;;;34.97;17.42;;;;;;;14.46;80.68;101669.41;5023183;28;20036;-55
2021/08/17 06:26:46;;;;;;;33.63;19.15;;;;;;;14.54;80.57;101666.16;5031312;28;20380;-58
2021/08/17 06:29:15;;;;;;;28.50;15.88;;;;;;;14.55;80.58;101670.56;5031058;28;20037;-60
2021/08/17 06:31:42;;;;;;;37.00;19.08;;;;;;;14.55;80.62;101669.72;5031252;28;20042;-59
2021/08/17 06:34:10;;;;;;;32.88;18.25;;;;;;;14.62;80.42;101671.09;5031121;28;20045;-53
2021/08/17 06:36:39;;;;;;;28.92;16.92;;;;;;;14.64;80.42;101668.88;5031425;28;20057;-59
2021/08/17 06:39:08;;;;;;;31.55;17.95;;;;;;;14.60;80.80;101672.44;5031228;28;20048;-58
2021/08/17 06:41:36;;;;;;;39.63;19.63;;;;;;;14.59;81.23;101654.34;5030860;28;20057;-59
2021/08/17 06:44:04;;;;;;;30.15;16.30;;;;;;;14.72;80.34;101662.03;5028866;28;20052;-58
2021/08/17 06:46:31;;;;;;;33.58;19.13;;;;;;;14.70;80.57;101659.56;5030880;28;20041;-57
2021/08/17 06:48:59;;;;;;;31.23;17.48;;;;;;;14.70;80.70;101653.28;5030809;28;20091;-58
2021/08/17 06:51:27;;;;;;;25.95;14.23;;;;;;;14.71;80.49;101646.66;5030337;28;20518;-58
2021/08/17 06:53:54;;;;;;;27.45;16.42;;;;;;;14.73;80.45;101652.72;5031052;28;20496;-57
2021/08/17 06:56:22;;;;;;;32.80;17.38;;;;;;;14.74;81.08;101659.81;5030846;28;20034;-57
2021/08/17 06:58:49;;;;;;;33.88;18.70;;;;;;;14.67;81.48;101668.34;5030064;28;20095;-59
2021/08/17 07:01:17;;;;;;;28.02;15.15;;;;;;;14.69;81.14;101665.31;5031236;28;20519;-57
2021/08/17 07:03:45;;;;;;;29.67;17.13;;;;;;;14.88;80.23;101674.63;5032160;28;20034;-55
2021/08/17 07:06:12;;;;;;;33.33;17.55;;;;;;;14.81;81.17;101676.00;5032592;28;20045;-57
2021/08/17 07:08:40;;;;;;;32.92;17.48;;;;;;;14.85;80.72;101674.38;5032647;28;20069;-57
2021/08/17 07:11:08;;;;;;;28.42;15.15;;;;;;;14.82;81.04;101675.75;5032916;28;20064;-56
2021/08/17 07:13:36;;;;;;;29.25;17.27;;;;;;;14.85;81.01;101677.94;5032992;28;20047;-57
2021/08/17 07:16:04;;;;;;;32.47;17.65;;;;;;;14.85;81.10;101668.88;5032234;28;20464;-57
2021/08/17 07:18:32;;;;;;;34.67;19.73;;;;;;;14.99;80.82;101674.63;5032226;28;20045;-56
2021/08/17 07:21:00;;;;;;;34.35;19.40;;;;;;;14.96;81.01;101664.19;5032204;28;20092;-56
2021/08/17 07:23:28;;;;;;;33.70;18.13;;;;;;;14.91;81.45;101679.59;5032213;28;20057;-57
2021/08/17 07:25:55;;;;;;;32.53;16.38;;;;;;;14.92;81.30;101680.41;5032656;28;20048;-58
2021/08/17 07:28:23;;;;;;;35.40;18.73;;;;;;;14.94;81.21;101689.19;5032048;28;20502;-58
2021/08/17 07:30:51;;;;;;;33.47;18.17;;;;;;;14.91;81.74;101685.06;5032158;28;20034;-60
2021/08/17 07:33:19;;;;;;;35.50;17.80;;;;;;;14.93;81.32;101682.03;5032429;28;20111;-59
2021/08/17 07:35:46;;;;;;;38.25;17.90;;;;;;;15.01;81.12;101684.25;5032539;28;20060;-59
2021/08/17 07:38:14;;;;;;;54.55;17.90;;;;;;;15.15;79.88;101678.97;5032461;28;20499;-57
2021/08/17 07:40:42;;;;;;;35.95;18.52;;;;;;;15.09;80.62;101669.94;5032636;28;20045;-59
2021/08/17 07:43:10;;;;;;;51.83;17.83;;;;;;;15.12;79.68;101663.06;5032307;28;20052;-57
2021/08/17 07:45:38;;;;;;;33.72;17.63;;;;;;;15.09;80.35;101680.09;5031758;28;20045;-57
2021/08/17 07:48:26;;;;;;;32.45;16.58;;;;;;;15.03;80.78;101686.69;5024391;28;20037;-54
2021/08/17 07:50:53;;;;;;;34.10;17.92;;;;;;;15.03;80.88;101684.78;5031167;28;20453;-58
2021/08/17 07:53:21;;;;;;;31.08;16.95;;;;;;;15.04;80.98;101674.63;5031547;28;20129;-55
2021/08/17 07:55:48;;;;;;;37.85;15.52;;;;;;;15.14;79.80;101669.09;5031938;28;20049;-58
2021/08/17 07:58:16;;;;;;;32.45;18.48;;;;;;;15.20;80.65;101676.25;5032204;28;20046;-60
2021/08/17 08:00:44;;;;;;;29.90;17.10;;;;;;;15.14;80.67;101671.84;5031861;28;20048;-58
2021/08/17 08:03:11;;;;;;;32.55;17.75;;;;;;;15.25;80.06;101669.91;5031830;28;20047;-59
2021/08/17 08:05:39;;;;;;;32.33;18.08;;;;;;;15.21;80.52;101671.56;5031674;28;20128;-58
2021/08/17 08:08:07;;;;;;;32.70;17.38;;;;;;;15.21;80.02;101672.38;5026013;28;20053;-59
2021/08/17 08:10:34;;;;;;;31.80;13.38;;;;;;;15.24;79.35;101666.34;5022542;28;20038;-58
2021/08/17 08:13:02;;;;;;;36.47;16.98;;;;;;;15.37;79.38;101662.19;5030907;28;20037;-58
2021/08/17 08:15:30;;;;;;;35.45;15.48;;;;;;;15.42;78.70;101662.16;5030079;28;20140;-54
2021/08/17 08:17:58;;;;;;;33.05;16.48;;;;;;;15.66;78.51;101661.53;5031190;28;20064;-57
2021/08/17 08:20:25;;;;;;;30.90;15.43;;;;;;;15.65;78.19;101660.69;5021732;28;20049;-59
2021/08/17 08:22:53;;;;;;;28.48;14.30;;;;;;;15.57;78.57;101675.03;5031360;28;20069;-58
2021/08/17 08:25:21;;;;;;;31.58;15.60;;;;;;;15.56;78.64;101673.34;5031535;28;20048;-58
2021/08/17 08:27:49;;;;;;;30.55;15.73;;;;;;;15.63;78.08;101684.06;5031242;28;20048;-57
2021/08/17 08:30:17;;;;;;;26.92;14.68;;;;;;;15.61;78.58;101676.13;5031549;28;20053;-58
2021/08/17 08:32:45;;;;;;;23.00;13.07;;;;;;;15.64;77.96;101680.22;5031450;28;20042;-59
2021/08/17 08:35:13;;;;;;;25.42;14.32;;;;;;;15.55;78.75;101677.22;5030585;28;20046;-57
2021/08/17 08:37:40;;;;;;;29.20;15.10;;;;;;;15.47;79.25;101675.06;5031548;28;20038;-56
2021/08/17 08:40:10;;;;;;;33.58;15.77;;;;;;;15.39;79.06;101667.38;5031700;28;20488;-59
2021/08/17 08:42:38;;;;;;;26.67;15.00;;;;;;;15.38;79.21;101671.25;5030928;28;20083;-60
2021/08/17 08:45:07;;;;;;;31.67;15.65;;;;;;;15.38;79.17;101671.25;5031212;28;20119;-60
2021/08/17 08:47:35;;;;;;;30.73;14.25;;;;;;;15.36;79.55;101667.94;5030419;28;20124;-59
2021/08/17 08:50:04;;;;;;;24.92;14.07;;;;;;;15.40;78.90;101664.38;5014542;28;20055;-58
2021/08/17 08:52:32;;;;;;;26.13;13.38;;;;;;;15.38;78.74;101671.25;5031617;28;20048;-58
2021/08/17 08:55:02;;;;;;;31.35;14.10;;;;;;;15.52;78.33;101662.13;5031480;28;20496;-60
2021/08/17 08:57:30;;;;;;;24.95;14.00;;;;;;;15.54;78.21;101659.13;5031075;28;20034;-60
2021/08/17 08:59:58;;;;;;;27.10;13.43;;;;;;;15.62;78.03;101658.50;5031542;28;20132;-60
2021/08/17 09:02:30;;;;;;;25.52;13.02;;;;;;;15.59;78.10;101664.59;5031832;28;20389;-58
2021/08/17 09:05:00;;;;;;;22.13;11.20;;;;;;;15.60;77.33;101659.91;5029551;28;20515;-59
2021/08/17 09:07:39;;;;;;;31.30;14.00;;;;;;;15.59;77.56;101667.31;5031514;28;20049;-58
2021/08/17 09:10:20;;;;;;;24.33;12.98;;;;;;;15.54;77.27;101681.09;5023743;28;20447;-56
2021/08/17 09:12:56;;;;;;;21.67;12.52;;;;;;;15.56;77.42;101678.84;5030772;28;20132;-59
2021/08/17 09:15:29;;;;;;;25.75;13.00;;;;;;;15.54;77.31;101686.59;5031351;28;20060;-59
2021/08/17 09:17:59;;;;;;;24.10;12.07;;;;;;;15.56;77.44;101706.31;5030669;28;20128;-58
2021/08/17 09:20:44;;;;;;;24.00;11.82;;;;;;;15.55;77.00;101707.44;5031752;28;20041;-56
2021/08/17 09:23:28;;;;;;;21.05;11.50;;;;;;;15.56;77.02;101706.31;5032554;28;20048;-58
2021/08/17 09:26:03;;;;;;;23.50;12.13;;;;;;;15.55;77.23;101694.53;5035033;28;20047;-57
2021/08/17 09:28:36;;;;;;;15.32;7.68;;;;;;;15.58;77.29;101700.56;5033833;28;20045;-54
2021/08/17 09:31:34;;;;;;;27.88;11.50;;;;;;;15.54;76.85;101712.13;5034834;28;20049;-55
2021/08/17 09:34:02;;;;;;;23.77;11.35;;;;;;;15.57;77.00;101707.16;5030854;28;20053;-54
2021/08/17 09:36:37;;;;;;;20.35;11.45;;;;;;;15.58;76.33;101706.06;5035272;28;20059;-57
2021/08/17 09:39:04;;;;;;;19.65;9.57;;;;;;;15.63;76.17;101706.03;5025867;28;20514;-58
2021/08/17 09:41:32;;;;;;;20.88;8.77;;;;;;;15.68;76.15;101698.63;5035234;28;20037;-59
2021/08/17 09:44:03;;;;;;;18.05;10.52;;;;;;;15.64;76.09;101692.03;5033609;28;20042;-59
2021/08/17 09:46:34;;;;;;;17.83;9.65;;;;;;;15.69;75.70;101681.00;5034776;28;20138;-57
2021/08/17 09:49:26;;;;;;;13.98;6.18;;;;;;;15.77;74.86;101671.38;5034563;28;20059;-56
2021/08/17 09:51:55;;;;;;;20.02;10.63;;;;;;;15.77;74.80;101661.22;5034387;28;20041;-56
2021/08/17 09:54:24;;;;;;;12.70;6.35;;;;;;;15.78;74.94;101659.31;5034152;28;20053;-58
2021/08/17 09:57:00;;;;;;;19.75;10.20;;;;;;;15.72;75.11;101661.25;5034031;28;20500;-57
2021/08/17 09:59:30;;;;;;;18.65;10.32;;;;;;;15.70;75.03;101657.94;5034581;28;20073;-59
2021/08/17 10:01:58;;;;;;;17.52;9.43;;;;;;;15.70;75.33;101640.66;5033448;28;20147;-57
2021/08/17 10:04:26;;;;;;;17.02;9.20;;;;;;;15.68;74.83;101651.91;5034041;28;20515;-59
2021/08/17 10:06:57;;;;;;;21.08;9.57;;;;;;;15.72;74.75;101661.25;5034478;28;20583;-59
2021/08/17 10:09:25;;;;;;;17.33;9.57;;;;;;;15.75;74.26;101655.19;5033958;28;20059;-60
2021/08/17 10:11:53;;;;;;;15.05;7.88;;;;;;;15.72;74.19;101655.75;5049376;28;20037;-59
2021/08/17 10:14:21;;;;;;;19.27;8.70;;;;;;;15.72;74.39;101663.16;5032636;28;20064;-60
2021/08/17 10:16:49;;;;;;;16.85;8.60;;;;;;;15.69;74.21;101661.78;5033946;28;20041;-58
2021/08/17 10:19:29;;;;;;;17.13;8.00;;;;;;;15.67;74.20;101663.16;5033869;28;20044;-58
2021/08/17 10:21:58;;;;;;;16.25;7.85;;;;;;;15.71;74.35;101670.59;5032793;28;20038;-59
2021/08/17 10:24:40;;;;;;;19.33;7.78;;;;;;;15.72;74.30;101669.47;5033735;28;20467;-58
2021/08/17 10:27:14;;;;;;;12.95;6.78;;;;;;;15.74;74.22;101671.97;5021003;28;20037;-59
2021/08/17 10:30:14;;;;;;;17.35;8.52;;;;;;;15.65;74.30;101670.88;5032584;28;20142;-59
2021/08/17 10:32:44;;;;;;;13.45;7.00;;;;;;;15.91;74.38;101668.84;5019470;28;20057;-55
2021/08/17 10:35:28;;;;;;;15.25;7.03;;;;;;;15.85;74.57;101653.47;5033710;28;20133;-57
2021/08/17 10:38:08;;;;;;;19.92;8.02;;;;;;;15.77;73.82;101647.47;5033442;28;20045;-59
2021/08/17 10:40:51;;;;;;;15.35;6.60;;;;;;;15.77;73.88;101646.66;5033248;28;20045;-59
2021/08/17 10:43:31;;;;;;;16.02;6.95;;;;;;;15.76;73.85;101634.84;5033450;28;20479;-58
2021/08/17 10:46:04;;;;;;;16.00;8.40;;;;;;;15.74;73.37;101636.25;5033403;28;20044;-56
2021/08/17 10:48:50;;;;;;;13.68;6.93;;;;;;;15.79;75.22;101625.22;5033415;28;20045;-59
2021/08/17 10:51:23;;;;;;;11.60;5.80;;;;;;;15.83;74.09;101633.72;5033796;28;20243;-59
2021/08/17 10:54:03;;;;;;;19.52;8.88;;;;;;;15.97;73.31;101624.56;5028878;28;20042;-56
2021/08/17 10:56:35;;;;;;;17.08;7.25;;;;;;;15.92;73.27;101637.50;5020399;28;20034;-58
2021/08/17 10:59:03;;;;;;;14.93;6.50;;;;;;;15.92;73.25;101638.34;5033209;28;20163;-57
2021/08/17 11:01:34;;;;;;;16.27;5.78;;;;;;;15.88;73.15;101641.94;5033343;28;20045;-58
2021/08/17 11:04:10;;;;;;;20.20;8.00;;;;;;;15.81;73.46;101652.44;5032940;28;20493;-57
2021/08/17 11:06:43;;;;;;;21.40;7.55;;;;;;;15.78;73.72;101648.31;5032767;28;20526;-60
2021/08/17 11:09:11;;;;;;;13.88;7.18;;;;;;;15.79;73.84;101643.63;5032985;28;20128;-58
2021/08/17 11:11:40;;;;;;;15.85;8.80;;;;;;;15.73;73.95;101646.41;5031701;28;20408;-59
2021/08/17 11:14:21;;;;;;;15.10;7.28;;;;;;;15.70;73.97;101648.88;5031495;28;20042;-59
2021/08/17 11:16:57;;;;;;;16.23;8.25;;;;;;;15.70;74.04;101646.97;5032725;28;20071;-59
2021/08/17 11:19:27;;;;;;;13.80;6.43;;;;;;;15.80;73.93;101648.00;5032696;28;20034;-58
2021/08/17 11:21:57;;;;;;;13.75;7.13;;;;;;;15.77;73.68;101646.66;5032628;28;20639;-55